Peter Schäfer

Jefe de ojeadores - Hamburger SV
10 Abr 2029
Martes
Continuar

Personalidad

Adaptabilidad (7) Ambición (1) Controversia (5) Lealtad (19) Presión (19) Profesionalismo (3) Deportividad (9) Temperamento (15)

Perfil

Estilo de dirección Democrático
Licencia Nacional A
Determinación 11
Gestión de personas 9
Motivación 9
Disciplina 12
Satisfacción laboral
100%
Fatiga
0%
Cargo Jefe de ojeadores
Salario 83.3K p/s
Contrato 14.03.2030

Rendimiento

Comportamiento Bueno
Efectividad del entrenamiento
61%
Desarrollo de jugadores
35%
Prevención de lesiones
50%
Implementación táctica
60%

Eventos recientes

Cumpleaños 49d atrás

Actualmente siguiendo

149
Jugador Club Estado Habilidad Confianza Observado Última observación Último voto
Honest Ahanor Udinese Activo 141 / 145 40% 4 29.01.2029 -
Buba Sangaré Elche Activo 135 / 142 40% 2 29.01.2029 -
Eliesse Ben Seghir Bayer Leverkusen Activo 141 / 151 76% 1 29.01.2029 Aprobar
Martín Jiménez Universidad de Concepcion Activo 109 / 114 40% 1 29.01.2029 -
Mario Vušković Union Berlin Perdido 131 / 138 76% 1 22.01.2029 Aprobar
Jussef Nasrawe SV Ried Activo 109 / 114 40% 2 15.01.2029 -
Jorge Salinas Racing Santander Activo 134 / 140 40% 1 15.01.2029 -
Mousa Mignolet Vitesse Activo 107 / 118 40% 1 15.01.2029 -
Aaron Zehnter VfL Wolfsburg Activo 139 / 143 76% 1 08.01.2029 Aprobar
Jannik Huth VfL Wolfsburg Perdido 124 / 124 76% 1 07.01.2029 Aprobar
Shane Nti Chesterfield Activo 112 / 122 40% 1 06.01.2029 -
Lisandro Piñero Banfield Activo 125 / 127 40% 1 06.01.2029 -
Lewi Richards Walsall Activo 103 / 109 40% 1 02.01.2029 -
Tobiáš Pališčák AS Trencin Activo 105 / 114 40% 1 02.01.2029 -
Andrej Bačanin Vaduz Activo 122 / 123 40% 1 02.01.2029 -
Franculino Ajax Activo 151 / 151 40% 1 01.01.2029 -
Kauã Elias Shakhtar Activo 138 / 146 40% 1 01.01.2029 -
Vivaldo Semedo Watford Activo 126 / 129 40% 1 01.01.2029 -
Joris Boguo SV Ried Activo 103 / 109 40% 1 01.01.2029 -
Aarón Ochoa Málaga Perdido 124 / 129 40% 1 01.01.2029 -
Andrej Bačanin Vaduz Perdido 116 / 126 40% 1 01.01.2029 -
Oliver Sorg SV Ried Activo 112 / 116 40% 2 28.08.2028 -
Giovanni Cantizano Rosario Central Activo 114 / 130 40% 1 28.08.2028 -
Yago Noal Santa Cruz Activo 112 / 114 40% 1 28.08.2028 -
Gabriel Mec Ceará Activo 116 / 123 40% 1 23.08.2028 -
Sebastian Rodriguez Minnesota United FC Activo 112 / 128 40% 1 23.08.2028 -
Alessio Cacciamani Torino Activo 123 / 131 40% 1 14.08.2028 -
Rodrigo Mora AS Roma Activo 151 / 155 40% 1 14.08.2028 -
Alexander Røssing-Lelesiit St. Pauli Activo 123 / 129 40% 1 07.08.2028 -
Babis Kostoulas Manchester City Activo 153 / 151 40% 2 31.07.2028 -
Love Arrhov St. Pauli Activo 122 / 135 40% 1 31.07.2028 -
Victor Aznar Cádiz Activo 138 / 140 40% 1 24.07.2028 -
Jorthy Mokio Ajax Activo 139 / 137 40% 1 17.07.2028 -
Leo Pecover Rotherham United Activo 101 / 114 40% 1 17.07.2028 -
André Miranda Porto Activo 118 / 123 40% 1 10.07.2028 -
Sebastian Lodberg Pergolettese Activo 102 / 117 40% 1 10.07.2028 -
Noah Tamsamani Vitesse Activo 100 / 110 40% 1 10.07.2028 -
Illaijh de Ruijter ADO Den Haag Activo 124 / 129 40% 2 26.06.2028 -
Harry Amass Manchester United Activo 147 / 146 40% 1 20.06.2028 -
Gerardo Del Vecchio Rah Ahan Activo 114 / 110 40% 1 20.06.2028 -
Daniel Banjaqui Benfica Activo 123 / 133 40% 1 20.06.2028 -
Neil Volken Zurich Activo 103 / 113 40% 2 12.06.2028 -
Josh King Fulham Activo 140 / 155 40% 1 12.06.2028 -
Moussa Yeo Swansea City Activo 133 / 134 40% 2 03.06.2028 -
Emersonn Ipswich Town Activo 132 / 138 40% 1 03.06.2028 -
Filipe Sousa Porto Activo 105 / 106 40% 1 03.06.2028 -
Pau Cubarsí Barcelona Activo 162 / 160 40% 1 03.06.2028 -
Martim Cunha Porto Activo 109 / 110 40% 3 01.06.2028 -
Alejandro Iturbe Elche Activo 145 / 142 40% 1 01.06.2028 -
Deniz Ertaş Heidenheim Activo 125 / 131 40% 1 01.06.2028 -
Christos Mandas Lazio Activo 144 / 148 40% 1 31.01.2028 -
James Trafford Leeds United Activo 153 / 155 40% 1 24.01.2028 -
Jonmi Magunagoitia Eibar Activo 141 / 139 40% 1 10.01.2028 -
Assane Diao Como Activo 156 / 149 40% 1 01.01.2028 -
Luca Bombino San Diego Football Club Activo 99 / 114 40% 1 30.08.2027 -
Raphael Posch Mattersburg Activo 115 / 117 40% 1 30.08.2027 -
Frederik Ihler IF Elfsborg Activo 106 / 111 40% 1 30.08.2027 -
Felipe Faúndez O'Higgins Activo 100 / 101 40% 1 28.08.2027 -
Mohamed Moussa Koïta Persijap Activo 100 / 107 40% 3 27.08.2027 -
Jorrel Hato Chelsea Activo 151 / 156 40% 1 26.08.2027 -
Luis Otávio Sporting Kansas City Activo 120 / 115 40% 1 26.08.2027 -
Facundo Balatti Fenix Activo 100 / 113 40% 1 22.08.2027 -
Abdoul Djire Ararat Activo 94 / 106 40% 1 21.08.2027 -
Harbor Miller LA Galaxy Activo 95 / 94 40% 1 21.08.2027 -
Alexis Fretes Libertad Activo 110 / 111 40% 2 20.08.2027 -
Florent Hajdini Wolfsberger AC Activo 96 / 102 40% 1 18.08.2027 -
Azizbek To'lqinbekov Sogdiana Activo 86 / 111 40% 3 15.08.2027 -
Abdoulie Tamba GIF Sundsvall Activo 103 / 100 40% 2 15.08.2027 -
Mio Zimmermann Luzern Activo 98 / 110 40% 1 14.08.2027 -
Marwin Schmitz St. Pauli Activo 96 / 105 40% 1 13.08.2027 -
Petik Manukyan Urartu Activo 96 / 102 40% 1 11.08.2027 -
Bahia Santos Activo 111 / 123 40% 1 10.08.2027 -
Kevin Kelsy Portland Timbers Activo 121 / 123 40% 2 09.08.2027 -
Luis Palacios Tigres Activo 105 / 109 40% 2 01.08.2027 -
Will Lankshear Middlesbrough Activo 130 / 124 40% 5 30.07.2027 -
Archie Goodwin Charlotte Football Club Activo 99 / 101 40% 1 29.07.2027 -
Alexandre Duville-Parsemain Moreirense Activo 118 / 114 40% 2 28.07.2027 -
Abdoulie Ceesay St. Pauli Activo 114 / 118 40% 6 26.07.2027 -
Denys Smetana Metalurh Zaporizhzhia Activo 102 / 111 40% 3 26.07.2027 -
Juan Manuel Villalba Estudiantes Activo 110 / 124 40% 1 26.07.2027 -
Vasyl Bundash Metalurh Zaporizhzhia Activo 105 / 115 40% 4 23.07.2027 -
Gadiel Paoli General Caballero Activo 92 / 97 40% 1 23.07.2027 -
Dženan Pejčinović VfB Stuttgart Activo 122 / 126 40% 5 20.07.2027 -
Filipe Gabriel Depor Activo 92 / 94 40% 2 19.07.2027 -
Jacob Peter Hödl Sturm Graz Perdido 119 / 126 40% 1 19.07.2027 -
Arkaitz Mariezkurrena Real Sociedad Activo 114 / 128 40% 2 14.07.2027 -
Lars Villiger Luzern Activo 114 / 118 40% 3 12.07.2027 -
Moctar Diop KAA Gent Activo 118 / 124 40% 5 11.07.2027 -
Peter Itodo Metalist Activo 119 / 109 40% 2 11.07.2027 -
Thomas Kastanaras FC Augsburg Activo 114 / 114 40% 3 10.07.2027 -
García Pascual Cádiz Activo 129 / 121 40% 4 07.07.2027 -
Rafiu Durosinmi Racing Genk Activo 128 / 136 40% 3 07.07.2027 -
Maurits Kjærgaard Red Bull Salzburg Activo 136 / 134 40% 5 05.07.2027 -
Tyreece Campbell Charlton Athletic Activo 119 / 119 40% 3 05.07.2027 -
Youssuf Sylla Jagiellonia Activo 107 / 119 40% 1 26.06.2027 -
Daniel Vernattus Metalist Activo 99 / 107 40% 1 24.06.2027 -
Mohamadou Kanté West Ham United Activo 122 / 125 40% 1 24.06.2027 -
Sanel Šaljić Austria Wien Activo 110 / 129 40% 1 23.06.2027 -
Paulo Cardoso Sporting CP Activo 95 / 98 40% 2 22.06.2027 -
Joel Medina Osasuna Activo 108 / 126 40% 2 20.06.2027 -
Matheus Gonçalves Al-Ahli Activo 125 / 126 40% 1 18.06.2027 -
Patrick Mainka Heidenheim Activo 139 / 140 69% 1 14.06.2027 Aprobar
Giorgi Kvernadze Frosinone Activo 119 / 119 40% 1 06.06.2027 -
Olívio Tomé Benfica Activo 103 / 117 40% 2 05.06.2027 -
Juan-José Perea Zurich Activo 115 / 125 40% 3 28.01.2027 -
Richard Koné Queens Park Rangers Activo 129 / 121 40% 2 28.01.2027 -
Ousmane Camara Castellón Activo 123 / 119 40% 1 28.01.2027 -
Álex Forés Burgos Activo 129 / 131 40% 2 27.01.2027 -
Meschack Elia Alanyaspor Activo 129 / 111 40% 2 27.01.2027 -
Keita Kosugi Eintracht Frankfurt Activo 117 / 135 40% 1 26.01.2027 -
Davis Keillor-Dunn Wrexham Activo 122 / 121 40% 1 23.01.2027 -
Hugo Cuypers Monterrey Activo 137 / 125 40% 1 23.01.2027 -
Santiago Sosa Yung Valencia Activo 114 / 131 40% 1 23.01.2027 -
Arthur Cabral Botafogo Activo 138 / 128 40% 1 21.01.2027 -
Egas Cacintura Akhmat Grozny Activo 129 / 131 40% 1 20.01.2027 -
Claudio Spinelli Vasco da Gama Activo 128 / 122 40% 1 18.01.2027 -
Donis Avdijaj Wolfsberger AC Activo 114 / 115 40% 1 16.01.2027 -
Hwang Hee-Chan Wolverhampton Activo 142 / 136 40% 1 16.01.2027 -
Yorbe Vertessen Red Bull Salzburg Activo 122 / 127 40% 3 13.01.2027 -
Samuel Essende Young Boys Activo 130 / 131 40% 2 09.01.2027 -
Joaquin Seys Club Brugge Activo 120 / 133 40% 1 07.01.2027 -
Oscar Kabwit Luzern Activo 109 / 118 40% 1 06.01.2027 -
Diego Rossi Monterrey Activo 131 / 127 40% 1 31.08.2026 Más información
João Klauss LA Galaxy Activo 138 / 125 40% 1 30.08.2026 -
Timo Werner San Jose Earthquakes Activo 136 / 118 40% 2 29.08.2026 -
Dani Raba Valencia Activo 137 / 134 40% 1 29.08.2026 -
Miguel Merentiel Boca Juniors Activo 139 / 126 40% 2 28.08.2026 -
Indiana Vassilev Philadelphia Union Activo 106 / 117 40% 1 26.08.2026 -
Leonardo Campana New England Revolution Activo 133 / 126 40% 1 25.08.2026 -
Matteo di Giusto Luzern Activo 120 / 129 40% 2 23.08.2026 -
Oli McBurnie Hull City Activo 126 / 137 40% 1 23.08.2026 -
Rilind Nivokazi Sion Activo 115 / 115 40% 3 21.08.2026 -
Philippe Keny Zurich Activo 126 / 118 40% 3 18.08.2026 -
Ilyas Chouaref Sion Activo 127 / 121 40% 1 18.08.2026 -
Morgan Guilavogui Real Salt Lake Activo 131 / 119 40% 1 16.08.2026 -
Josias Lukembila Sion Activo 117 / 122 40% 1 15.08.2026 -
Ibrahim Salah Basel Activo 118 / 119 40% 1 15.08.2026 -
Caleb Yirenkyi Coventry City Activo 135 / 133 40% 1 15.08.2026 -
Samuel Marques Grasshopper Activo 108 / 117 40% 1 14.08.2026 -
Alexey Miranchuk Atlanta United FC Activo 153 / 135 40% 2 12.08.2026 -
Fodé Sylla Sion Activo 115 / 123 40% 1 12.08.2026 -
Luca Orellano Monterrey Activo 124 / 136 40% 1 10.08.2026 -
Pep Biel Charlotte Football Club Activo 140 / 125 40% 1 09.08.2026 -
Mohamed Bangoura Zurich Activo 95 / 100 40% 1 07.08.2026 -
Edmund Baidoo Red Bull Salzburg Activo 113 / 123 40% 1 07.08.2026 -
Jesus Ferreira Seattle Sounders Activo 131 / 133 40% 1 05.08.2026 -
Tim Lemperle TSG Hoffenheim Activo 139 / 134 40% 1 05.08.2026 -
Arjan Malić Sturm Graz Activo 113 / 122 40% 1 04.08.2026 -
Julian von Moos Grasshopper Activo 106 / 120 40% 1 01.08.2026 -